createdAt,value
2019-05-29T00:00:14.659Z,9.40
2019-05-29T00:01:18.295Z,9.80
2019-05-29T00:02:14.192Z,10.10
2019-05-29T00:03:14.499Z,10.40
2019-05-29T00:04:14.464Z,10.20
2019-05-29T00:05:14.259Z,9.90
2019-05-29T00:06:14.376Z,9.70
2019-05-29T00:07:14.268Z,10.60
2019-05-29T00:08:14.674Z,10.80
2019-05-29T00:09:14.267Z,10.30
2019-05-29T00:10:14.367Z,9.20
2019-05-29T00:11:14.291Z,9.50
2019-05-29T00:12:19.206Z,9.30
2019-05-29T00:13:14.508Z,9.10
2019-05-29T00:14:22.591Z,9.50
2019-05-29T00:15:14.547Z,10.00
2019-05-29T00:16:14.495Z,9.70
2019-05-29T00:17:14.677Z,9.10
2019-05-29T00:18:14.540Z,10.00
2019-05-29T00:19:14.554Z,9.70
2019-05-29T00:20:14.645Z,9.20
2019-05-29T00:21:14.703Z,9.70
2019-05-29T00:22:14.512Z,9.50
2019-05-29T00:23:14.679Z,9.60
2019-05-29T00:24:13.820Z,8.80
2019-05-29T00:25:14.729Z,9.40
2019-05-29T00:26:14.580Z,9.30
2019-05-29T00:27:15.436Z,9.30
2019-05-29T00:28:14.761Z,9.80
2019-05-29T00:29:13.880Z,10.30
2019-05-29T00:30:14.904Z,9.90
2019-05-29T00:31:13.995Z,11.00
2019-05-29T00:32:15.077Z,10.30
2019-05-29T00:33:14.428Z,10.30
2019-05-29T00:34:13.716Z,10.10
2019-05-29T00:35:14.339Z,10.60
2019-05-29T00:36:14.324Z,10.60
2019-05-29T00:37:14.539Z,10.60
2019-05-29T00:38:14.693Z,10.90
2019-05-29T00:39:14.738Z,11.70
2019-05-29T00:40:14.958Z,11.80
2019-05-29T00:41:13.644Z,12.70
2019-05-29T00:42:14.858Z,14.10
2019-05-29T00:43:13.610Z,16.10
2019-05-29T00:44:13.618Z,16.30
2019-05-29T00:45:13.610Z,17.50
2019-05-29T00:46:13.599Z,17.40
2019-05-29T00:47:13.698Z,18.00
2019-05-29T00:48:14.017Z,19.30
2019-05-29T00:49:13.885Z,19.30
2019-05-29T00:50:14.104Z,18.80
2019-05-29T00:51:13.539Z,18.70
2019-05-29T00:52:14.278Z,19.00
2019-05-29T00:53:14.289Z,19.20
2019-05-29T00:54:14.401Z,19.80
2019-05-29T00:55:14.576Z,20.20
2019-05-29T00:56:14.616Z,19.90
2019-05-29T00:57:13.483Z,18.90
2019-05-29T00:58:13.463Z,19.30
2019-05-29T00:59:13.471Z,18.50
2019-05-29T01:00:13.467Z,18.00
2019-05-29T01:01:13.442Z,17.50
2019-05-29T01:02:13.713Z,17.40
2019-05-29T01:03:13.738Z,18.10
2019-05-29T01:04:13.631Z,18.10
2019-05-29T01:05:13.928Z,17.20
2019-05-29T01:06:13.951Z,17.90
2019-05-29T01:07:14.152Z,17.80
2019-05-29T01:08:14.420Z,17.50
2019-05-29T01:09:14.382Z,16.90
2019-05-29T01:10:14.590Z,17.70
2019-05-29T01:11:13.341Z,16.50
2019-05-29T01:12:13.351Z,17.00
2019-05-29T01:13:13.372Z,18.00
2019-05-29T01:14:13.305Z,16.80
2019-05-29T01:15:13.389Z,17.10
2019-05-29T01:16:13.358Z,16.70
2019-05-29T01:17:13.734Z,17.20
2019-05-29T01:18:13.803Z,17.00
2019-05-29T01:19:13.892Z,16.50
2019-05-29T01:20:13.994Z,15.80
2019-05-29T01:21:13.804Z,15.70
2019-05-29T01:22:14.083Z,15.90
2019-05-29T01:23:14.118Z,15.80
2019-05-29T01:24:14.032Z,16.40
2019-05-29T01:25:14.240Z,16.60
2019-05-29T01:26:13.200Z,15.70
2019-05-29T01:27:13.181Z,15.10
2019-05-29T01:28:13.198Z,14.60
2019-05-29T01:29:13.143Z,14.90
2019-05-29T01:30:13.264Z,15.00
2019-05-29T01:31:13.564Z,14.10
2019-05-29T01:32:13.449Z,13.70
2019-05-29T01:33:16.922Z,14.30
2019-05-29T01:34:13.531Z,13.60
2019-05-29T01:35:13.759Z,13.70
2019-05-29T01:36:13.848Z,11.90
2019-05-29T01:37:13.911Z,11.50
2019-05-29T01:38:13.084Z,11.60
2019-05-29T01:39:13.062Z,11.20
2019-05-29T01:40:20.954Z,11.40
2019-05-29T01:41:13.062Z,11.40
2019-05-29T01:42:13.075Z,11.20
2019-05-29T01:43:13.053Z,10.40
2019-05-29T01:44:13.014Z,9.80
2019-05-29T01:45:13.004Z,9.90
2019-05-29T01:46:13.009Z,9.30
2019-05-29T01:47:12.990Z,9.60
2019-05-29T01:48:13.031Z,9.60
2019-05-29T01:49:13.036Z,8.90
2019-05-29T01:50:12.961Z,8.60
2019-05-29T01:51:12.995Z,8.80
2019-05-29T01:52:12.935Z,9.20
2019-05-29T01:53:12.915Z,8.70
2019-05-29T01:54:12.904Z,8.50
2019-05-29T01:55:12.906Z,7.70
2019-05-29T01:56:12.909Z,8.60
2019-05-29T01:57:12.884Z,8.30
2019-05-29T01:58:12.867Z,8.30
2019-05-29T01:59:12.854Z,8.30
2019-05-29T02:00:12.850Z,8.80
2019-05-29T02:01:12.854Z,8.50
2019-05-29T02:02:12.828Z,8.50
2019-05-29T02:03:12.831Z,8.60
2019-05-29T02:04:12.810Z,8.00
2019-05-29T02:05:12.810Z,7.60
2019-05-29T02:06:12.796Z,7.10
2019-05-29T02:07:12.782Z,7.60
2019-05-29T02:08:12.755Z,7.70
2019-05-29T02:09:12.752Z,7.10
2019-05-29T02:10:12.764Z,7.50
2019-05-29T02:11:12.741Z,7.30
2019-05-29T02:12:12.738Z,7.10
2019-05-29T02:13:12.714Z,7.50
2019-05-29T02:14:12.721Z,8.00
2019-05-29T02:15:24.853Z,6.90
2019-05-29T02:16:12.702Z,7.30
2019-05-29T02:17:12.695Z,7.40
2019-05-29T02:18:12.656Z,7.20
2019-05-29T02:19:12.651Z,6.90
2019-05-29T02:20:12.652Z,6.80
2019-05-29T02:21:12.633Z,6.80
2019-05-29T02:22:12.642Z,6.20
2019-05-29T02:23:12.704Z,6.60
2019-05-29T02:24:12.606Z,6.30
2019-05-29T02:25:15.813Z,6.50
2019-05-29T02:26:12.602Z,6.20
2019-05-29T02:27:12.601Z,5.70
2019-05-29T02:28:12.605Z,6.40
2019-05-29T02:29:12.558Z,6.20
2019-05-29T02:30:12.568Z,6.50
2019-05-29T02:31:12.537Z,6.30
2019-05-29T02:32:12.534Z,6.50
2019-05-29T02:33:12.528Z,6.40
2019-05-29T02:34:12.530Z,6.40
2019-05-29T02:35:12.510Z,6.10
2019-05-29T02:36:12.504Z,6.20
2019-05-29T02:37:12.536Z,6.30
2019-05-29T02:38:12.491Z,6.60
2019-05-29T02:39:12.458Z,6.70
2019-05-29T02:40:12.464Z,6.80
2019-05-29T02:41:12.470Z,7.20
2019-05-29T02:42:12.476Z,6.50
2019-05-29T02:43:12.433Z,6.50
2019-05-29T02:44:12.442Z,7.10
2019-05-29T02:45:12.410Z,7.10
2019-05-29T02:46:12.413Z,6.30
2019-05-29T02:47:12.406Z,7.20
2019-05-29T02:48:12.392Z,6.60
2019-05-29T02:49:12.368Z,6.80
2019-05-29T02:50:12.390Z,6.60
2019-05-29T02:51:12.523Z,7.10
2019-05-29T02:52:12.357Z,6.60
2019-05-29T02:53:12.333Z,7.40
2019-05-29T02:54:12.310Z,6.70
2019-05-29T02:55:12.303Z,6.60
2019-05-29T02:56:12.354Z,7.00
2019-05-29T02:57:12.304Z,6.30
2019-05-29T02:58:12.315Z,6.50
2019-05-29T02:59:12.294Z,6.10
2019-05-29T03:00:12.279Z,6.90
2019-05-29T03:01:12.242Z,6.00
2019-05-29T03:02:12.249Z,6.60
2019-05-29T03:03:12.233Z,6.70
2019-05-29T03:04:12.240Z,7.70
2019-05-29T03:05:12.228Z,7.10
2019-05-29T03:06:12.213Z,7.20
2019-05-29T03:07:12.211Z,7.90
2019-05-29T03:08:12.177Z,7.40
2019-05-29T03:09:12.188Z,7.70
2019-05-29T03:10:12.215Z,7.80
2019-05-29T03:11:12.175Z,7.00
2019-05-29T03:12:12.174Z,6.70
2019-05-29T03:13:12.164Z,7.10
2019-05-29T03:14:12.134Z,8.40
2019-05-29T03:15:12.126Z,9.00
2019-05-29T03:16:12.950Z,10.40
2019-05-29T03:17:12.112Z,11.40
2019-05-29T03:18:12.103Z,12.10
2019-05-29T03:19:12.081Z,11.80
2019-05-29T03:20:12.114Z,10.50
2019-05-29T03:21:12.078Z,10.70
2019-05-29T03:22:12.093Z,11.00
2019-05-29T03:23:12.035Z,10.50
2019-05-29T03:24:12.091Z,10.10
2019-05-29T03:25:12.018Z,11.10
2019-05-29T03:26:12.024Z,11.30
2019-05-29T03:27:12.011Z,12.50
2019-05-29T03:28:12.009Z,8.90
2019-05-29T03:29:11.998Z,8.90
2019-05-29T03:30:11.982Z,9.00
2019-05-29T03:31:11.973Z,8.00
2019-05-29T03:32:13.964Z,8.10
2019-05-29T03:33:11.952Z,7.60
2019-05-29T03:34:11.945Z,8.40
2019-05-29T03:35:11.967Z,7.40
2019-05-29T03:36:11.969Z,8.40
2019-05-29T03:37:11.892Z,7.50
2019-05-29T03:38:11.899Z,8.00
2019-05-29T03:39:11.882Z,8.40
2019-05-29T03:40:11.871Z,9.10
2019-05-29T03:41:11.858Z,8.70
2019-05-29T03:42:11.858Z,8.70
2019-05-29T03:43:11.862Z,8.70
2019-05-29T03:44:11.858Z,9.10
2019-05-29T03:45:11.841Z,9.00
2019-05-29T03:46:29.266Z,9.10
2019-05-29T03:47:11.850Z,9.20
2019-05-29T03:48:11.846Z,8.70
2019-05-29T03:49:11.813Z,9.90
2019-05-29T03:50:15.488Z,10.00
2019-05-29T03:51:11.760Z,10.30
2019-05-29T03:52:11.741Z,10.10
2019-05-29T03:53:11.751Z,9.00
2019-05-29T03:54:11.737Z,9.00
2019-05-29T03:55:11.751Z,8.30
2019-05-29T03:56:11.700Z,9.40
2019-05-29T03:57:11.700Z,9.00
2019-05-29T03:58:11.706Z,8.30
2019-05-29T03:59:11.676Z,9.00
2019-05-29T04:00:11.658Z,9.50
2019-05-29T04:01:11.898Z,10.90
2019-05-29T04:02:11.656Z,10.80
2019-05-29T04:03:11.649Z,11.10
2019-05-29T04:04:11.621Z,10.50
2019-05-29T04:05:11.619Z,9.30
2019-05-29T04:06:11.596Z,9.30
2019-05-29T04:07:11.606Z,9.70
2019-05-29T04:08:11.595Z,9.60
2019-05-29T04:09:11.567Z,11.00
2019-05-29T04:10:11.562Z,11.30
2019-05-29T04:11:11.562Z,11.20
2019-05-29T04:12:11.530Z,11.20
2019-05-29T04:13:11.549Z,11.80
2019-05-29T04:14:11.506Z,11.30
2019-05-29T04:15:11.487Z,11.80
2019-05-29T04:16:11.488Z,12.30
2019-05-29T04:17:11.539Z,12.70
2019-05-29T04:18:11.519Z,13.10
2019-05-29T04:19:11.448Z,13.60
2019-05-29T04:20:11.495Z,13.00
2019-05-29T04:21:11.421Z,13.20
2019-05-29T04:22:11.428Z,13.00
2019-05-29T04:23:11.415Z,13.60
2019-05-29T04:24:11.421Z,15.20
2019-05-29T04:25:11.390Z,14.60
2019-05-29T04:26:11.393Z,14.80
2019-05-29T04:27:11.366Z,15.40
2019-05-29T04:28:11.373Z,14.50
2019-05-29T04:29:11.350Z,13.60
2019-05-29T04:30:11.348Z,14.00
2019-05-29T04:31:11.382Z,13.50
2019-05-29T04:32:11.311Z,13.20
2019-05-29T04:33:11.317Z,14.20
2019-05-29T04:34:11.292Z,13.60
2019-05-29T04:35:11.300Z,14.80
2019-05-29T04:36:11.297Z,13.60
2019-05-29T04:37:11.302Z,13.60
2019-05-29T04:38:11.261Z,13.90
2019-05-29T04:39:11.217Z,14.90
2019-05-29T04:40:11.231Z,13.80
2019-05-29T04:41:11.214Z,14.90
2019-05-29T04:42:11.216Z,13.30
2019-05-29T04:43:11.198Z,13.30
2019-05-29T04:44:11.187Z,14.30
2019-05-29T04:45:11.190Z,12.50
2019-05-29T04:46:11.159Z,13.60
2019-05-29T04:47:12.503Z,13.50
2019-05-29T04:48:11.188Z,13.80
2019-05-29T04:49:11.134Z,14.50
2019-05-29T04:50:11.117Z,15.10
2019-05-29T04:51:11.094Z,15.30
2019-05-29T04:52:11.135Z,15.40
2019-05-29T04:53:11.103Z,16.20
2019-05-29T04:54:11.097Z,13.90
2019-05-29T04:55:11.073Z,14.10
2019-05-29T04:56:11.097Z,13.90
2019-05-29T04:57:11.033Z,13.20
2019-05-29T04:58:11.040Z,13.10
2019-05-29T04:59:11.004Z,14.60
2019-05-29T05:00:11.016Z,13.80
2019-05-29T05:01:10.993Z,14.60
2019-05-29T05:02:10.991Z,16.40
2019-05-29T05:03:11.011Z,17.10
2019-05-29T05:04:10.980Z,16.20
2019-05-29T05:05:10.979Z,16.80
2019-05-29T05:06:10.970Z,17.50
2019-05-29T05:07:10.927Z,17.30
2019-05-29T05:08:10.939Z,17.10
2019-05-29T05:09:10.937Z,18.20
2019-05-29T05:10:10.908Z,16.90
2019-05-29T05:11:10.896Z,15.90
2019-05-29T05:12:10.922Z,15.10
2019-05-29T05:13:10.882Z,15.40
2019-05-29T05:14:10.869Z,15.70
2019-05-29T05:15:10.865Z,15.80
2019-05-29T05:16:10.841Z,15.80
2019-05-29T05:17:25.251Z,15.50
2019-05-29T05:18:10.809Z,15.80
2019-05-29T05:19:10.818Z,15.00
2019-05-29T05:20:10.789Z,15.60
2019-05-29T05:21:10.794Z,15.40
2019-05-29T05:22:10.781Z,16.30
2019-05-29T05:23:10.762Z,15.80
2019-05-29T05:24:10.760Z,15.30
2019-05-29T05:25:10.740Z,15.20
2019-05-29T05:26:10.739Z,15.20
2019-05-29T05:27:10.764Z,16.10
2019-05-29T05:28:10.725Z,16.70
2019-05-29T05:29:10.691Z,16.00
2019-05-29T05:30:10.713Z,15.90
2019-05-29T05:31:10.724Z,15.60
2019-05-29T05:32:10.669Z,15.60
2019-05-29T05:33:10.684Z,15.70
2019-05-29T05:34:10.636Z,15.80
2019-05-29T05:35:14.195Z,16.00
2019-05-29T05:36:10.643Z,16.40
2019-05-29T05:37:10.621Z,15.70
2019-05-29T05:38:10.614Z,16.70
2019-05-29T05:39:10.599Z,15.60
2019-05-29T05:40:10.591Z,16.30
2019-05-29T05:41:10.567Z,16.80
2019-05-29T05:42:10.573Z,16.20
2019-05-29T05:43:23.136Z,17.20
2019-05-29T05:44:10.558Z,17.60
2019-05-29T05:45:10.520Z,17.80
2019-05-29T05:46:10.566Z,17.00
2019-05-29T05:47:10.530Z,17.40
2019-05-29T05:48:10.500Z,17.20
2019-05-29T05:49:10.494Z,17.20
2019-05-29T05:50:10.490Z,16.00
2019-05-29T05:51:10.482Z,16.40
2019-05-29T05:52:10.464Z,16.20
2019-05-29T05:53:10.500Z,16.50
2019-05-29T05:54:10.505Z,16.80
2019-05-29T05:55:10.439Z,16.60
2019-05-29T05:56:10.445Z,16.90
2019-05-29T05:57:10.413Z,16.00
2019-05-29T05:58:10.399Z,16.50
2019-05-29T05:59:10.395Z,17.10
2019-05-29T06:00:10.378Z,16.70
2019-05-29T06:01:10.365Z,16.30
2019-05-29T06:02:10.366Z,16.90
2019-05-29T06:03:10.359Z,16.20
2019-05-29T06:04:10.379Z,16.70
2019-05-29T06:05:10.326Z,15.70
2019-05-29T06:06:10.309Z,17.50
2019-05-29T06:07:10.309Z,16.90
2019-05-29T06:08:10.299Z,16.00
2019-05-29T06:09:10.286Z,16.90
2019-05-29T06:10:10.286Z,17.20
2019-05-29T06:11:10.255Z,17.70
2019-05-29T06:12:10.254Z,16.90
2019-05-29T06:13:10.258Z,15.90
2019-05-29T06:14:10.259Z,17.60
2019-05-29T06:15:10.209Z,17.60
2019-05-29T06:16:10.257Z,18.00
2019-05-29T06:17:10.198Z,17.40
2019-05-29T06:18:20.426Z,17.40
2019-05-29T06:19:10.220Z,17.20
2019-05-29T06:20:10.179Z,16.40
2019-05-29T06:21:10.152Z,16.10
2019-05-29T06:22:10.162Z,15.70
2019-05-29T06:23:10.140Z,15.70
2019-05-29T06:24:10.144Z,16.30
2019-05-29T06:25:10.144Z,15.70
2019-05-29T06:26:10.151Z,16.40
2019-05-29T06:27:10.110Z,16.30
2019-05-29T06:28:10.076Z,16.80
2019-05-29T06:29:10.064Z,16.90
2019-05-29T06:30:10.063Z,15.30
2019-05-29T06:31:10.052Z,14.50
2019-05-29T06:32:10.062Z,14.40
2019-05-29T06:33:10.027Z,15.70
2019-05-29T06:34:10.019Z,15.00
2019-05-29T06:35:10.065Z,14.10
2019-05-29T06:36:09.995Z,14.10
2019-05-29T06:37:10.008Z,13.50
2019-05-29T06:38:09.990Z,14.10
2019-05-29T06:39:09.955Z,14.30
2019-05-29T06:40:09.970Z,14.60
2019-05-29T06:41:09.964Z,14.70
2019-05-29T06:42:09.978Z,14.60
2019-05-29T06:43:11.870Z,14.60
2019-05-29T06:44:09.961Z,15.30
2019-05-29T06:45:09.899Z,15.20
2019-05-29T06:46:09.909Z,15.20
2019-05-29T06:47:09.892Z,15.30
2019-05-29T06:48:09.872Z,15.60
2019-05-29T06:49:09.869Z,16.10
2019-05-29T06:50:09.867Z,16.40
2019-05-29T06:51:09.847Z,16.60
2019-05-29T06:52:09.815Z,16.90
2019-05-29T06:53:09.831Z,17.00
2019-05-29T06:54:09.821Z,15.60
2019-05-29T06:55:09.838Z,15.90
2019-05-29T06:56:09.791Z,16.60
2019-05-29T06:57:09.766Z,15.90
2019-05-29T06:58:09.759Z,16.50
2019-05-29T06:59:09.776Z,16.30
2019-05-29T07:00:09.825Z,17.30
2019-05-29T07:01:09.730Z,16.70
2019-05-29T07:02:09.718Z,16.80
2019-05-29T07:03:09.750Z,15.90
2019-05-29T07:04:12.310Z,16.10
2019-05-29T07:05:09.717Z,16.10
2019-05-29T07:06:09.698Z,17.50
2019-05-29T07:07:09.677Z,18.10
2019-05-29T07:08:19.201Z,16.20
2019-05-29T07:09:09.656Z,16.80
2019-05-29T07:10:09.633Z,16.70
2019-05-29T07:11:09.635Z,16.70
2019-05-29T07:12:09.616Z,15.20
2019-05-29T07:13:09.593Z,16.40
2019-05-29T07:14:09.601Z,15.50
2019-05-29T07:15:09.582Z,14.90
2019-05-29T07:16:09.576Z,15.90
2019-05-29T07:17:09.617Z,15.70
2019-05-29T07:18:09.548Z,14.40
2019-05-29T07:19:24.581Z,15.00
2019-05-29T07:20:09.562Z,16.00
2019-05-29T07:21:09.531Z,15.50
2019-05-29T07:22:09.513Z,15.40
2019-05-29T07:23:09.506Z,14.90
2019-05-29T07:24:09.483Z,14.90
2019-05-29T07:25:09.492Z,15.30
2019-05-29T07:26:09.467Z,14.40
2019-05-29T07:27:13.409Z,14.80
2019-05-29T07:28:09.426Z,15.10
2019-05-29T07:29:09.450Z,14.50
2019-05-29T07:30:09.434Z,15.70
2019-05-29T07:31:09.451Z,15.90
2019-05-29T07:32:09.421Z,15.50
2019-05-29T07:33:09.408Z,16.20
2019-05-29T07:34:09.424Z,16.40
2019-05-29T07:35:09.363Z,16.90
2019-05-29T07:36:09.358Z,16.80
2019-05-29T07:37:09.362Z,14.90
2019-05-29T07:38:09.316Z,15.20
2019-05-29T07:39:09.331Z,15.10
2019-05-29T07:40:09.328Z,13.80
2019-05-29T07:41:09.330Z,14.20
2019-05-29T07:42:09.310Z,14.00
2019-05-29T07:43:09.280Z,13.60
2019-05-29T07:44:09.285Z,13.40
2019-05-29T07:45:09.292Z,13.70
2019-05-29T07:46:09.247Z,13.10
2019-05-29T07:47:09.975Z,14.60
2019-05-29T07:48:09.280Z,15.00
2019-05-29T07:49:09.235Z,16.30
2019-05-29T07:50:09.221Z,17.00
2019-05-29T07:51:09.208Z,19.30
2019-05-29T07:52:09.200Z,18.90
2019-05-29T07:53:09.183Z,19.10
2019-05-29T07:54:09.190Z,19.20
2019-05-29T07:55:09.154Z,17.80
2019-05-29T07:56:21.620Z,16.20
2019-05-29T07:57:09.149Z,15.60
2019-05-29T07:58:09.165Z,15.50
2019-05-29T07:59:09.115Z,16.20
2019-05-29T08:00:09.106Z,16.40
2019-05-29T08:01:13.197Z,18.00
2019-05-29T08:02:09.073Z,17.60
2019-05-29T08:03:09.069Z,17.80
2019-05-29T08:04:09.060Z,18.20
2019-05-29T08:05:09.052Z,18.50
2019-05-29T08:06:09.067Z,18.30
2019-05-29T08:07:09.033Z,19.70
2019-05-29T08:08:09.048Z,19.30
2019-05-29T08:09:09.000Z,19.10
2019-05-29T08:10:09.003Z,18.60
2019-05-29T08:11:08.985Z,19.40
2019-05-29T08:12:08.972Z,19.10
2019-05-29T08:13:08.954Z,19.90
2019-05-29T08:14:08.958Z,19.50
2019-05-29T08:15:08.944Z,18.80
2019-05-29T08:16:08.974Z,20.10
2019-05-29T08:17:08.933Z,22.00
2019-05-29T08:18:08.925Z,21.30
2019-05-29T08:19:08.894Z,21.60
2019-05-29T08:20:08.907Z,23.00
2019-05-29T08:21:08.892Z,22.90
2019-05-29T08:22:08.866Z,23.70
2019-05-29T08:23:08.843Z,23.00
2019-05-29T08:24:08.853Z,23.60
2019-05-29T08:25:08.857Z,23.50
2019-05-29T08:26:08.837Z,22.70
2019-05-29T08:27:08.811Z,22.60
2019-05-29T08:28:08.807Z,22.30
2019-05-29T08:29:08.825Z,22.80
2019-05-29T08:30:08.782Z,24.40
2019-05-29T08:31:08.779Z,22.50
2019-05-29T08:32:08.771Z,22.80
2019-05-29T08:33:08.754Z,22.40
2019-05-29T08:34:08.753Z,23.10
2019-05-29T08:35:08.759Z,23.00
2019-05-29T08:36:08.717Z,23.20
2019-05-29T08:37:08.754Z,22.80
2019-05-29T08:38:08.728Z,21.20
2019-05-29T08:39:08.680Z,22.00
2019-05-29T08:40:08.693Z,22.60
2019-05-29T08:41:08.670Z,22.00
2019-05-29T08:42:22.368Z,22.70
2019-05-29T08:43:08.647Z,22.40
2019-05-29T08:44:08.641Z,23.30
2019-05-29T08:45:08.622Z,21.90
2019-05-29T08:46:08.615Z,23.70
2019-05-29T08:47:10.890Z,25.60
2019-05-29T08:48:08.633Z,25.60
2019-05-29T08:49:08.593Z,27.40
2019-05-29T08:50:18.160Z,26.70
2019-05-29T08:51:08.615Z,28.60
2019-05-29T08:52:12.199Z,27.80
2019-05-29T08:53:08.539Z,28.70
2019-05-29T08:54:22.905Z,28.20
2019-05-29T08:55:08.526Z,28.30
2019-05-29T08:56:08.528Z,29.10
2019-05-29T08:57:08.501Z,28.80
2019-05-29T08:58:08.475Z,30.30
2019-05-29T08:59:08.495Z,30.70
2019-05-29T09:00:08.513Z,30.50
2019-05-29T09:01:08.486Z,30.60
2019-05-29T09:02:08.465Z,32.10
2019-05-29T09:03:08.438Z,33.80
2019-05-29T09:04:08.425Z,33.10
2019-05-29T09:05:08.414Z,31.20
2019-05-29T09:06:09.222Z,32.70
2019-05-29T09:07:08.373Z,29.80
2019-05-29T09:08:08.388Z,28.10
2019-05-29T09:09:08.377Z,29.20
2019-05-29T09:10:08.379Z,29.40
2019-05-29T09:11:08.349Z,28.50
2019-05-29T09:12:08.331Z,28.50
2019-05-29T09:13:08.324Z,26.90
2019-05-29T09:14:08.337Z,28.00
2019-05-29T09:15:08.838Z,29.00
2019-05-29T09:16:08.294Z,30.00
2019-05-29T09:17:08.348Z,28.60
2019-05-29T09:18:08.296Z,28.50
2019-05-29T09:19:08.246Z,27.50
2019-05-29T09:20:25.432Z,27.80
2019-05-29T09:21:08.251Z,28.50
2019-05-29T09:22:08.223Z,28.20
2019-05-29T09:23:08.219Z,29.50
2019-05-29T09:24:08.227Z,30.40
2019-05-29T09:25:08.206Z,31.10
2019-05-29T09:26:15.972Z,29.80
2019-05-29T09:27:08.167Z,31.20
2019-05-29T09:28:08.189Z,32.40
2019-05-29T09:29:08.172Z,32.40
2019-05-29T09:30:08.139Z,33.60
2019-05-29T09:31:08.165Z,33.60
2019-05-29T09:32:08.128Z,31.70
2019-05-29T09:33:08.168Z,33.30
2019-05-29T09:34:08.113Z,32.40
2019-05-29T09:35:08.103Z,34.30
2019-05-29T09:36:08.094Z,33.40
2019-05-29T09:37:08.071Z,33.40
2019-05-29T09:38:08.059Z,32.90
2019-05-29T09:39:08.047Z,34.00
2019-05-29T09:40:08.047Z,33.40
2019-05-29T09:41:08.031Z,33.50
2019-05-29T09:42:08.127Z,31.40
2019-05-29T09:43:08.032Z,31.10
2019-05-29T09:44:08.006Z,30.00
2019-05-29T09:45:07.981Z,31.20
2019-05-29T09:46:07.981Z,30.00
2019-05-29T09:47:07.992Z,29.60
2019-05-29T09:48:07.983Z,31.30
2019-05-29T09:49:08.030Z,30.00
2019-05-29T09:50:07.941Z,31.70
2019-05-29T09:51:20.750Z,30.90
2019-05-29T09:52:07.935Z,31.70
2019-05-29T09:53:07.979Z,32.60
2019-05-29T09:54:07.958Z,34.00
2019-05-29T09:55:07.943Z,33.40
2019-05-29T09:56:07.895Z,33.00
2019-05-29T09:57:07.869Z,31.40
2019-05-29T09:58:07.869Z,30.40
2019-05-29T09:59:07.841Z,29.90
2019-05-29T10:00:07.848Z,31.10
2019-05-29T10:01:22.330Z,28.00
2019-05-29T10:02:09.075Z,26.50
2019-05-29T10:03:07.818Z,26.50
2019-05-29T10:04:07.808Z,26.90
2019-05-29T10:05:07.796Z,26.00
2019-05-29T10:06:09.473Z,26.40
2019-05-29T10:07:07.811Z,25.60
2019-05-29T10:08:07.766Z,27.30
2019-05-29T10:09:07.732Z,27.10
2019-05-29T10:10:07.746Z,27.90
2019-05-29T10:11:10.719Z,26.60
2019-05-29T10:12:07.747Z,28.60
2019-05-29T10:13:07.696Z,29.90
2019-05-29T10:14:07.714Z,29.40
2019-05-29T10:15:07.666Z,28.20
2019-05-29T10:16:07.687Z,29.40
2019-05-29T10:17:11.753Z,27.70
2019-05-29T10:18:18.218Z,27.40
2019-05-29T10:19:07.670Z,27.60
2019-05-29T10:20:07.637Z,28.30
2019-05-29T10:21:07.629Z,29.10
2019-05-29T10:22:07.625Z,28.50
2019-05-29T10:23:07.617Z,29.00
2019-05-29T10:24:07.599Z,28.40
2019-05-29T10:25:07.589Z,26.80
2019-05-29T10:26:07.563Z,24.80
2019-05-29T10:27:07.580Z,24.00
2019-05-29T10:28:07.594Z,23.70
2019-05-29T10:29:09.672Z,23.50
2019-05-29T10:30:07.590Z,22.90
2019-05-29T10:31:07.594Z,25.10
2019-05-29T10:32:07.539Z,24.10
2019-05-29T10:33:07.561Z,23.80
2019-05-29T10:34:07.558Z,23.90
2019-05-29T10:35:07.503Z,24.40
2019-05-29T10:36:07.505Z,22.10
2019-05-29T10:37:07.483Z,23.20
2019-05-29T10:38:07.434Z,24.20
2019-05-29T10:39:07.450Z,24.90
2019-05-29T10:40:07.456Z,24.00
2019-05-29T10:41:07.600Z,24.00
2019-05-29T10:42:07.400Z,24.30
2019-05-29T10:43:07.411Z,22.40
2019-05-29T10:44:07.411Z,20.90
2019-05-29T10:45:07.394Z,20.50
2019-05-29T10:46:07.385Z,18.40
2019-05-29T10:47:07.406Z,20.00
2019-05-29T10:48:07.353Z,19.50
2019-05-29T10:49:07.319Z,19.80
2019-05-29T10:50:07.351Z,19.10
2019-05-29T10:51:07.360Z,21.20
2019-05-29T10:52:15.665Z,19.90
2019-05-29T10:53:07.305Z,21.00
2019-05-29T10:54:07.290Z,20.30
2019-05-29T10:55:07.275Z,20.40
2019-05-29T10:56:07.259Z,19.90
2019-05-29T10:57:07.267Z,20.90
2019-05-29T10:58:07.239Z,19.50
2019-05-29T10:59:07.236Z,19.60
2019-05-29T11:00:07.254Z,19.00
2019-05-29T11:01:07.214Z,19.80
2019-05-29T11:02:07.205Z,19.20
2019-05-29T11:03:07.183Z,19.40
2019-05-29T11:04:07.206Z,20.20
2019-05-29T11:05:07.164Z,19.00
2019-05-29T11:06:07.163Z,20.70
2019-05-29T11:07:07.185Z,20.90
2019-05-29T11:08:07.144Z,20.30
2019-05-29T11:09:07.132Z,20.70
2019-05-29T11:10:07.136Z,20.20
2019-05-29T11:11:07.132Z,19.90
2019-05-29T11:12:07.141Z,18.90
2019-05-29T11:13:07.141Z,19.40
2019-05-29T11:14:07.067Z,19.20
2019-05-29T11:15:20.955Z,20.00
2019-05-29T11:16:07.069Z,18.90
2019-05-29T11:17:07.031Z,19.20
2019-05-29T11:18:07.059Z,18.20
2019-05-29T11:19:07.025Z,18.70
2019-05-29T11:20:07.026Z,17.70
2019-05-29T11:21:07.004Z,18.00
2019-05-29T11:22:25.187Z,18.60
2019-05-29T11:23:06.991Z,20.50
2019-05-29T11:24:06.979Z,18.80
2019-05-29T11:25:21.768Z,18.20
2019-05-29T11:26:06.976Z,17.80
2019-05-29T11:27:06.953Z,17.10
2019-05-29T11:28:06.951Z,17.30
2019-05-29T11:29:06.956Z,17.50
2019-05-29T11:30:06.926Z,17.00
2019-05-29T11:31:06.930Z,17.50
2019-05-29T11:32:06.910Z,16.50
2019-05-29T11:33:06.919Z,16.50
2019-05-29T11:34:06.894Z,16.20
2019-05-29T11:35:06.873Z,16.40
2019-05-29T11:36:12.565Z,15.40
2019-05-29T11:37:06.858Z,14.40
2019-05-29T11:38:06.869Z,14.60
2019-05-29T11:39:06.851Z,14.10
2019-05-29T11:40:06.840Z,14.20
2019-05-29T11:41:25.061Z,13.90
2019-05-29T11:42:06.846Z,13.00
2019-05-29T11:43:06.848Z,12.50
2019-05-29T11:44:06.799Z,13.30
2019-05-29T11:45:06.790Z,13.90
2019-05-29T11:46:06.784Z,13.50
2019-05-29T11:47:06.753Z,14.50
2019-05-29T11:48:06.764Z,14.60
2019-05-29T11:49:06.751Z,13.80
2019-05-29T11:50:18.682Z,13.70
2019-05-29T11:51:06.724Z,13.70
2019-05-29T11:52:23.841Z,13.80
2019-05-29T11:53:06.696Z,14.50
2019-05-29T11:54:06.708Z,14.00
2019-05-29T11:55:08.160Z,14.50
2019-05-29T11:56:06.722Z,14.60
2019-05-29T11:57:06.671Z,14.30
2019-05-29T11:58:06.666Z,13.60
2019-05-29T11:59:06.664Z,13.40
2019-05-29T12:00:17.815Z,13.30
2019-05-29T12:01:06.643Z,14.20
2019-05-29T12:02:06.633Z,14.80
2019-05-29T12:03:06.652Z,16.70
2019-05-29T12:04:22.623Z,15.20
2019-05-29T12:05:06.592Z,15.40
2019-05-29T12:06:06.723Z,15.10
2019-05-29T12:07:06.570Z,16.00
2019-05-29T12:08:06.548Z,16.10
2019-05-29T12:09:06.538Z,16.10
2019-05-29T12:10:06.922Z,16.30
2019-05-29T12:11:07.209Z,16.60
2019-05-29T12:12:06.534Z,16.10
2019-05-29T12:13:06.560Z,15.90
2019-05-29T12:14:06.520Z,14.90
2019-05-29T12:15:13.136Z,14.90
2019-05-29T12:16:06.484Z,14.80
2019-05-29T12:17:06.484Z,14.40
2019-05-29T12:18:22.794Z,14.80
2019-05-29T12:19:06.471Z,13.60
2019-05-29T12:20:26.515Z,12.00
2019-05-29T12:21:06.493Z,12.30
2019-05-29T12:22:06.432Z,11.50
2019-05-29T12:23:24.145Z,11.60
2019-05-29T12:24:06.416Z,11.90
2019-05-29T12:25:06.417Z,11.10
2019-05-29T12:26:21.186Z,11.30
2019-05-29T12:27:06.398Z,11.40
2019-05-29T12:28:06.399Z,11.20
2019-05-29T12:29:11.517Z,12.20
2019-05-29T12:30:06.931Z,11.20
2019-05-29T12:31:06.385Z,10.10
2019-05-29T12:32:09.408Z,11.90
2019-05-29T12:33:06.353Z,11.60
2019-05-29T12:34:17.869Z,11.00
2019-05-29T12:35:06.326Z,11.50
2019-05-29T12:36:06.335Z,11.10
2019-05-29T12:37:06.344Z,11.50
2019-05-29T12:38:06.280Z,11.10
2019-05-29T12:39:06.281Z,11.30
2019-05-29T12:40:06.290Z,10.70
2019-05-29T12:41:06.254Z,11.10
2019-05-29T12:42:06.261Z,11.60
2019-05-29T12:43:06.272Z,11.50
2019-05-29T12:44:06.257Z,12.10
2019-05-29T12:45:06.247Z,11.20
2019-05-29T12:46:06.253Z,10.80
2019-05-29T12:47:06.238Z,11.20
2019-05-29T12:48:12.249Z,10.70
2019-05-29T12:49:06.220Z,11.00
2019-05-29T12:50:06.201Z,9.80
2019-05-29T12:51:06.197Z,11.50
2019-05-29T12:52:08.097Z,11.10
2019-05-29T12:53:06.183Z,12.40
2019-05-29T12:54:06.209Z,12.30
2019-05-29T12:55:06.145Z,13.10
2019-05-29T12:56:06.153Z,14.20
2019-05-29T12:57:06.157Z,13.50